Time;durP1;ratioP1;P1;durP2;ratioP2;P2;SDS_P1;SDS_P2;PMS_P1;PMS_P2;Temp;Humidity;BMP_temperature;BMP_pressure;BME280_temperature;BME280_humidity;BME280_pressure;Samples;Min_cycle;Max_cycle;Signal;HPM_P1;HPM_P2
2021/07/30 00:01:56;;;;;;;5.93;3.33;;;;;;;;;;5072652;28;20035;-51
2021/07/30 00:04:21;;;;;;;5.13;2.70;;;;;;;;;;5072565;28;20095;-51
2021/07/30 00:06:47;;;;;;;6.57;2.60;;;;;;;;;;5072517;28;20434;-52
2021/07/30 00:09:13;;;;;;;4.43;2.65;;;;;;;;;;5072794;28;20024;-51
2021/07/30 00:11:40;;;;;;;5.90;2.70;;;;;;;;;;5071801;28;20013;-51
2021/07/30 00:14:06;;;;;;;6.43;2.50;;;;;;;;;;5072887;28;20036;-51
2021/07/30 00:16:32;;;;;;;5.22;3.25;;;;;;;;;;5072575;28;20132;-51
2021/07/30 00:18:58;;;;;;;3.28;2.17;;;;;;;;;;5072783;28;20088;-51
2021/07/30 00:21:24;;;;;;;7.55;3.53;;;;;;;;;;5071077;28;20420;-51
2021/07/30 00:23:50;;;;;;;5.93;2.90;;;;;;;;;;5072997;28;20025;-51
2021/07/30 00:26:16;;;;;;;4.40;2.47;;;;;;;;;;5072436;28;20040;-51
2021/07/30 00:28:42;;;;;;;7.47;2.78;;;;;;;;;;5072620;28;20353;-51
2021/07/30 00:31:08;;;;;;;3.72;2.50;;;;;;;;;;5071536;28;20150;-51
2021/07/30 00:33:35;;;;;;;4.95;2.95;;;;;;;;;;5078445;28;20021;-51
2021/07/30 00:36:01;;;;;;;11.73;2.75;;;;;;;;;;5084359;28;20109;-51
2021/07/30 00:38:27;;;;;;;3.13;2.20;;;;;;;;;;5091654;28;20364;-51
2021/07/30 00:40:53;;;;;;;7.45;2.78;;;;;;;;;;5091927;28;20787;-51
2021/07/30 00:43:19;;;;;;;6.38;2.42;;;;;;;;;;5092323;28;20423;-51
2021/07/30 00:45:45;;;;;;;5.63;2.53;;;;;;;;;;5092320;28;20493;-51
2021/07/30 00:48:11;;;;;;;3.83;2.80;;;;;;;;;;5092815;28;20051;-51
2021/07/30 00:50:38;;;;;;;4.18;2.05;;;;;;;;;;5091707;28;20126;-51
2021/07/30 00:53:04;;;;;;;3.60;2.22;;;;;;;;;;5092742;28;20024;-51
2021/07/30 00:55:30;;;;;;;4.32;2.85;;;;;;;;;;5096366;28;20028;-51
2021/07/30 00:57:57;;;;;;;4.10;2.20;;;;;;;;;;5096293;28;20108;-52
2021/07/30 01:00:23;;;;;;;3.95;2.50;;;;;;;;;;5096380;28;20028;-51
2021/07/30 01:02:49;;;;;;;4.45;2.35;;;;;;;;;;5095049;28;20081;-51
2021/07/30 01:05:15;;;;;;;4.68;2.50;;;;;;;;;;5095856;28;20030;-51
2021/07/30 01:07:41;;;;;;;6.55;2.35;;;;;;;;;;5096076;28;20032;-51
2021/07/30 01:10:07;;;;;;;4.93;2.78;;;;;;;;;;5096053;28;20123;-51
2021/07/30 01:12:33;;;;;;;10.68;2.30;;;;;;;;;;5094874;28;20024;-51
2021/07/30 01:14:59;;;;;;;6.88;2.92;;;;;;;;;;5095786;28;20081;-51
2021/07/30 01:17:25;;;;;;;2.90;2.20;;;;;;;;;;5095891;28;20028;-51
2021/07/30 01:19:54;;;;;;;4.25;2.63;;;;;;;;;;5095549;28;20020;-51
2021/07/30 01:22:22;;;;;;;7.10;2.90;;;;;;;;;;5095093;28;20044;-51
2021/07/30 01:24:49;;;;;;;5.90;2.42;;;;;;;;;;5095576;28;20316;-51
2021/07/30 01:27:15;;;;;;;6.05;2.55;;;;;;;;;;5095705;28;20020;-51
2021/07/30 01:29:41;;;;;;;2.95;2.03;;;;;;;;;;5096133;28;20023;-52
2021/07/30 01:32:07;;;;;;;4.15;2.53;;;;;;;;;;5094496;28;20024;-51
2021/07/30 01:34:33;;;;;;;7.47;2.75;;;;;;;;;;5090490;28;20024;-51
2021/07/30 01:36:59;;;;;;;3.88;2.60;;;;;;;;;;5074984;28;20047;-51
2021/07/30 01:39:25;;;;;;;3.72;2.30;;;;;;;;;;5075450;28;20063;-51
2021/07/30 01:41:51;;;;;;;4.82;2.10;;;;;;;;;;5074108;28;20056;-51
2021/07/30 01:44:17;;;;;;;3.50;2.47;;;;;;;;;;5074970;28;20033;-51
2021/07/30 01:46:43;;;;;;;3.13;2.22;;;;;;;;;;5074781;28;20020;-51
2021/07/30 01:49:09;;;;;;;3.60;2.25;;;;;;;;;;5074850;28;20050;-51
2021/07/30 01:51:35;;;;;;;3.80;2.42;;;;;;;;;;5074574;28;20028;-52
2021/07/30 01:54:01;;;;;;;4.35;2.25;;;;;;;;;;5074510;28;20028;-51
2021/07/30 01:56:27;;;;;;;3.00;2.22;;;;;;;;;;5075131;28;20043;-51
2021/07/30 01:58:53;;;;;;;3.78;2.35;;;;;;;;;;5074657;28;20028;-51
2021/07/30 02:01:19;;;;;;;7.68;2.58;;;;;;;;;;5073689;28;20031;-51
2021/07/30 02:03:45;;;;;;;4.75;2.47;;;;;;;;;;5074700;28;20028;-51
2021/07/30 02:06:11;;;;;;;4.05;2.30;;;;;;;;;;5073766;28;20104;-51
2021/07/30 02:08:37;;;;;;;3.13;2.38;;;;;;;;;;5081842;28;20047;-51
2021/07/30 02:11:13;;;;;;;3.72;2.30;;;;;;;;;;5094015;28;20182;-51
2021/07/30 02:16:24;;;;;;;3.42;2.45;;;;;;;;;;5094562;28;20039;-51
2021/07/30 02:18:51;;;;;;;5.25;2.45;;;;;;;;;;5094464;28;20020;-51
2021/07/30 02:21:18;;;;;;;4.10;2.88;;;;;;;;;;5093919;28;20036;-52
2021/07/30 02:23:44;;;;;;;4.80;2.35;;;;;;;;;;5094539;28;20021;-51
2021/07/30 02:26:10;;;;;;;5.90;3.08;;;;;;;;;;5094758;28;20020;-51
2021/07/30 02:28:36;;;;;;;4.40;2.50;;;;;;;;;;5094346;28;20024;-51
2021/07/30 02:31:02;;;;;;;6.65;2.88;;;;;;;;;;5093905;28;20024;-51
2021/07/30 02:33:28;;;;;;;8.43;2.25;;;;;;;;;;5094156;28;20017;-51
2021/07/30 02:35:54;;;;;;;3.63;2.35;;;;;;;;;;5094474;28;20024;-51
2021/07/30 02:38:20;;;;;;;5.10;2.28;;;;;;;;;;5093999;28;20115;-51
2021/07/30 02:40:46;;;;;;;3.90;2.22;;;;;;;;;;5093409;28;20131;-51
2021/07/30 02:43:12;;;;;;;4.57;2.65;;;;;;;;;;5094287;28;20020;-51
2021/07/30 02:45:38;;;;;;;3.80;2.47;;;;;;;;;;5094137;28;20028;-52
2021/07/30 02:48:04;;;;;;;6.47;3.00;;;;;;;;;;5094183;28;20185;-51
2021/07/30 02:50:30;;;;;;;5.97;2.25;;;;;;;;;;5093758;28;20020;-51
2021/07/30 02:52:56;;;;;;;6.22;2.53;;;;;;;;;;5093394;28;20027;-52
2021/07/30 02:55:22;;;;;;;6.10;2.67;;;;;;;;;;5094133;28;20362;-51
2021/07/30 02:57:48;;;;;;;4.43;2.22;;;;;;;;;;5093845;28;20164;-51
2021/07/30 03:00:14;;;;;;;3.88;2.25;;;;;;;;;;5093733;28;20031;-51
2021/07/30 03:02:40;;;;;;;4.97;2.45;;;;;;;;;;5093070;28;20517;-51
2021/07/30 03:05:07;;;;;;;5.15;2.42;;;;;;;;;;5094055;28;20116;-51
2021/07/30 03:07:32;;;;;;;5.22;2.30;;;;;;;;;;5093411;28;20020;-51
2021/07/30 03:09:58;;;;;;;5.05;2.60;;;;;;;;;;5093613;28;20052;-52
2021/07/30 03:12:24;;;;;;;4.60;2.38;;;;;;;;;;5092920;28;20027;-51
2021/07/30 03:14:50;;;;;;;8.27;3.22;;;;;;;;;;5094006;28;20056;-51
2021/07/30 03:17:16;;;;;;;7.63;2.85;;;;;;;;;;5093095;28;20380;-51
2021/07/30 03:19:42;;;;;;;4.22;2.40;;;;;;;;;;5093505;28;20027;-51
2021/07/30 03:22:08;;;;;;;4.22;2.58;;;;;;;;;;5092270;28;20503;-52
2021/07/30 03:24:34;;;;;;;4.57;2.70;;;;;;;;;;5093410;28;20029;-51
2021/07/30 03:27:00;;;;;;;7.10;2.90;;;;;;;;;;5093768;28;20373;-51
2021/07/30 03:29:26;;;;;;;5.05;2.30;;;;;;;;;;5093312;28;20499;-51
2021/07/30 03:31:52;;;;;;;6.82;2.88;;;;;;;;;;5092249;28;20031;-51
2021/07/30 03:34:18;;;;;;;5.32;2.20;;;;;;;;;;5093143;28;20028;-51
2021/07/30 03:36:45;;;;;;;4.50;2.63;;;;;;;;;;5092975;28;20123;-51
2021/07/30 03:39:11;;;;;;;3.78;2.63;;;;;;;;;;5093238;28;20016;-51
2021/07/30 03:41:37;;;;;;;5.15;2.40;;;;;;;;;;5091292;28;20358;-51
2021/07/30 03:44:04;;;;;;;9.93;3.10;;;;;;;;;;5091922;28;20395;-51
2021/07/30 03:46:30;;;;;;;4.30;2.60;;;;;;;;;;5092151;28;20028;-51
2021/07/30 03:48:56;;;;;;;5.50;2.63;;;;;;;;;;5091555;28;20027;-51
2021/07/30 03:51:22;;;;;;;4.53;2.33;;;;;;;;;;5092177;28;20032;-51
2021/07/30 03:53:48;;;;;;;5.63;2.80;;;;;;;;;;5092808;28;20099;-51
2021/07/30 03:56:14;;;;;;;4.57;2.33;;;;;;;;;;5092808;28;20055;-51
2021/07/30 03:58:41;;;;;;;5.07;2.60;;;;;;;;;;5092950;28;20353;-51
2021/07/30 04:01:08;;;;;;;5.50;2.80;;;;;;;;;;5091071;28;20039;-51
2021/07/30 04:03:34;;;;;;;9.13;2.72;;;;;;;;;;5088784;28;20511;-51
2021/07/30 04:06:03;;;;;;;7.13;2.75;;;;;;;;;;5085852;28;20107;-52
2021/07/30 04:08:29;;;;;;;8.15;2.88;;;;;;;;;;5086320;28;20073;-51
2021/07/30 04:10:55;;;;;;;4.15;2.55;;;;;;;;;;5086924;28;20020;-51
2021/07/30 04:13:21;;;;;;;8.75;2.45;;;;;;;;;;5085619;28;20019;-51
2021/07/30 04:15:47;;;;;;;4.45;2.63;;;;;;;;;;5092542;28;20039;-51
2021/07/30 04:18:13;;;;;;;7.22;2.63;;;;;;;;;;5092564;28;20016;-51
2021/07/30 04:20:39;;;;;;;11.52;2.92;;;;;;;;;;5091972;28;20455;-51
2021/07/30 04:23:05;;;;;;;3.45;2.25;;;;;;;;;;5093200;28;20032;-51
2021/07/30 04:25:31;;;;;;;5.35;2.78;;;;;;;;;;5084036;28;20030;-51
2021/07/30 04:27:57;;;;;;;4.15;2.72;;;;;;;;;;5082352;28;20041;-51
2021/07/30 04:30:23;;;;;;;8.10;2.58;;;;;;;;;;5089414;28;20020;-51
2021/07/30 04:32:50;;;;;;;6.65;2.97;;;;;;;;;;5085389;28;20507;-51
2021/07/30 04:35:16;;;;;;;5.72;2.63;;;;;;;;;;5083695;28;20366;-51
2021/07/30 04:37:42;;;;;;;6.38;2.65;;;;;;;;;;5096073;28;20032;-51
2021/07/30 04:40:08;;;;;;;7.43;2.90;;;;;;;;;;5087711;28;20028;-51
2021/07/30 04:42:34;;;;;;;5.18;2.50;;;;;;;;;;5095510;28;20288;-51
2021/07/30 04:45:00;;;;;;;5.43;2.65;;;;;;;;;;5093885;28;20016;-51
2021/07/30 04:47:26;;;;;;;4.45;2.60;;;;;;;;;;5096519;28;20024;-51
2021/07/30 04:49:52;;;;;;;4.65;2.63;;;;;;;;;;5096205;28;20431;-51
2021/07/30 04:52:18;;;;;;;7.40;2.55;;;;;;;;;;5095906;28;20115;-51
2021/07/30 04:54:44;;;;;;;5.90;2.28;;;;;;;;;;5095798;28;20024;-51
2021/07/30 04:57:10;;;;;;;4.13;2.50;;;;;;;;;;5096232;28;20046;-51
2021/07/30 04:59:36;;;;;;;7.30;2.60;;;;;;;;;;5096390;28;20020;-51
2021/07/30 05:02:03;;;;;;;5.90;3.10;;;;;;;;;;5095645;28;20035;-51
2021/07/30 05:04:29;;;;;;;10.00;3.25;;;;;;;;;;5096328;28;20028;-51
2021/07/30 05:06:56;;;;;;;12.57;2.80;;;;;;;;;;5096157;28;20027;-52
2021/07/30 05:09:22;;;;;;;5.95;2.60;;;;;;;;;;5096072;28;20046;-51
2021/07/30 05:11:48;;;;;;;3.80;2.42;;;;;;;;;;5085926;28;20455;-51
2021/07/30 05:14:14;;;;;;;5.93;2.53;;;;;;;;;;5088867;28;20024;-51
2021/07/30 05:16:40;;;;;;;5.13;2.20;;;;;;;;;;5091249;28;20071;-51
2021/07/30 05:19:06;;;;;;;4.38;2.30;;;;;;;;;;5095017;28;20020;-52
2021/07/30 05:21:32;;;;;;;6.22;2.92;;;;;;;;;;5090512;28;20034;-51
2021/07/30 05:23:58;;;;;;;5.18;2.60;;;;;;;;;;5079525;28;20028;-51
2021/07/30 05:26:25;;;;;;;4.15;2.22;;;;;;;;;;5092828;28;20034;-51
2021/07/30 05:28:51;;;;;;;7.80;2.90;;;;;;;;;;5092589;28;20092;-51
2021/07/30 05:31:18;;;;;;;4.57;2.13;;;;;;;;;;5092023;28;20475;-51
2021/07/30 05:33:44;;;;;;;5.75;2.35;;;;;;;;;;5094874;28;20020;-51
2021/07/30 05:36:17;;;;;;;8.88;3.47;;;;;;;;;;5093682;28;20067;-51
2021/07/30 05:38:43;;;;;;;7.47;3.15;;;;;;;;;;5095159;28;20077;-52
2021/07/30 05:41:13;;;;;;;5.78;2.83;;;;;;;;;;5093222;28;20031;-51
2021/07/30 05:43:39;;;;;;;5.53;2.70;;;;;;;;;;5080631;28;20020;-52
2021/07/30 05:46:05;;;;;;;3.40;2.42;;;;;;;;;;5080016;28;20334;-52
2021/07/30 05:48:32;;;;;;;4.78;3.10;;;;;;;;;;5088366;28;20588;-51
2021/07/30 05:50:58;;;;;;;3.88;2.75;;;;;;;;;;5073538;28;20426;-51
2021/07/30 05:53:24;;;;;;;7.50;2.83;;;;;;;;;;5074806;28;20107;-51
2021/07/30 05:55:50;;;;;;;7.78;3.40;;;;;;;;;;5074397;28;20110;-51
2021/07/30 05:58:16;;;;;;;6.63;3.17;;;;;;;;;;5074792;28;20104;-52
2021/07/30 06:00:42;;;;;;;6.82;2.83;;;;;;;;;;5073907;28;20052;-52
2021/07/30 06:03:08;;;;;;;4.35;2.83;;;;;;;;;;5075210;28;20057;-52
2021/07/30 06:05:34;;;;;;;6.85;3.22;;;;;;;;;;5090994;28;20089;-51
2021/07/30 06:08:05;;;;;;;7.32;3.75;;;;;;;;;;5094670;28;20092;-51
2021/07/30 06:10:31;;;;;;;9.05;3.70;;;;;;;;;;5094390;28;20297;-52
2021/07/30 06:12:57;;;;;;;5.82;2.95;;;;;;;;;;5094631;28;20028;-52
2021/07/30 06:15:23;;;;;;;6.55;3.60;;;;;;;;;;5093871;28;20380;-51
2021/07/30 06:17:50;;;;;;;10.25;3.65;;;;;;;;;;5093734;28;20104;-51
2021/07/30 06:20:16;;;;;;;7.88;3.97;;;;;;;;;;5093943;28;20430;-51
2021/07/30 06:22:42;;;;;;;8.50;3.85;;;;;;;;;;5093579;28;20024;-51
2021/07/30 06:25:08;;;;;;;11.60;4.40;;;;;;;;;;5094339;28;20024;-51
2021/07/30 06:27:34;;;;;;;7.90;4.47;;;;;;;;;;5094280;28;20032;-51
2021/07/30 06:30:04;;;;;;;8.23;4.38;;;;;;;;;;5094149;28;20370;-51
2021/07/30 06:32:30;;;;;;;17.90;4.47;;;;;;;;;;5093522;28;20502;-51
2021/07/30 06:34:56;;;;;;;13.20;4.15;;;;;;;;;;5093734;28;20020;-52
2021/07/30 06:37:22;;;;;;;9.43;4.15;;;;;;;;;;5093968;28;20094;-51
2021/07/30 06:39:48;;;;;;;13.02;4.55;;;;;;;;;;5094100;28;20032;-51
2021/07/30 06:42:14;;;;;;;14.68;4.88;;;;;;;;;;5089408;28;20023;-52
2021/07/30 06:44:40;;;;;;;14.90;6.40;;;;;;;;;;5094257;28;20349;-51
2021/07/30 06:47:06;;;;;;;17.63;7.72;;;;;;;;;;5094128;28;20031;-51
2021/07/30 06:49:36;;;;;;;30.00;6.40;;;;;;;;;;5093399;28;20024;-51
2021/07/30 06:52:02;;;;;;;10.82;5.72;;;;;;;;;;5092791;28;20055;-51
2021/07/30 06:54:33;;;;;;;13.90;5.55;;;;;;;;;;5094315;28;20012;-51
2021/07/30 06:56:59;;;;;;;17.30;5.85;;;;;;;;;;5094087;28;20357;-51
2021/07/30 06:59:25;;;;;;;11.80;5.55;;;;;;;;;;5091694;28;20024;-51
2021/07/30 07:01:51;;;;;;;18.08;7.05;;;;;;;;;;5091542;28;20028;-51
2021/07/30 07:04:17;;;;;;;9.75;3.95;;;;;;;;;;5086908;28;20025;-51
2021/07/30 07:06:47;;;;;;;10.05;4.32;;;;;;;;;;5093706;28;20507;-51
2021/07/30 07:09:13;;;;;;;6.88;4.22;;;;;;;;;;5086900;28;20020;-51
2021/07/30 07:11:39;;;;;;;8.80;5.15;;;;;;;;;;5093014;28;20027;-51
2021/07/30 07:14:05;;;;;;;10.07;4.78;;;;;;;;;;5093939;28;20039;-51
2021/07/30 07:16:31;;;;;;;7.35;4.13;;;;;;;;;;5093186;28;20038;-50
2021/07/30 07:18:57;;;;;;;9.77;4.55;;;;;;;;;;5093592;28;20107;-51
2021/07/30 07:21:23;;;;;;;15.07;4.47;;;;;;;;;;5090142;28;20118;-51
2021/07/30 07:23:50;;;;;;;10.18;4.80;;;;;;;;;;5093355;28;20028;-50
2021/07/30 07:26:16;;;;;;;13.88;5.40;;;;;;;;;;5093765;28;20407;-51
2021/07/30 07:28:43;;;;;;;11.02;5.63;;;;;;;;;;5093478;28;20051;-51
2021/07/30 07:31:09;;;;;;;13.43;4.85;;;;;;;;;;5091975;28;20035;-51
2021/07/30 07:33:35;;;;;;;10.15;4.07;;;;;;;;;;5093360;28;20016;-51
2021/07/30 07:36:01;;;;;;;12.15;4.97;;;;;;;;;;5076019;28;20086;-52
2021/07/30 07:38:27;;;;;;;11.25;4.85;;;;;;;;;;5072884;28;20036;-51
2021/07/30 07:40:53;;;;;;;6.45;4.15;;;;;;;;;;5072127;28;20303;-52
2021/07/30 07:43:19;;;;;;;10.10;4.97;;;;;;;;;;5072925;28;20021;-51
2021/07/30 07:45:45;;;;;;;9.27;3.90;;;;;;;;;;5072556;28;20048;-51
2021/07/30 07:48:11;;;;;;;16.08;4.85;;;;;;;;;;5073317;28;20024;-51
2021/07/30 07:50:37;;;;;;;11.23;3.45;;;;;;;;;;5076944;28;20028;-52
2021/07/30 07:53:12;;;;;;;10.90;5.25;;;;;;;;;;5081638;28;20158;-51
2021/07/30 07:55:38;;;;;;;12.30;4.30;;;;;;;;;;5086601;28;20074;-51
2021/07/30 07:58:04;;;;;;;9.82;4.53;;;;;;;;;;5090873;28;20024;-51
2021/07/30 08:00:30;;;;;;;10.23;4.93;;;;;;;;;;5091002;28;20028;-51
2021/07/30 08:02:56;;;;;;;11.43;4.30;;;;;;;;;;5091797;28;20023;-51
2021/07/30 08:05:22;;;;;;;9.98;4.50;;;;;;;;;;5092761;28;20028;-51
2021/07/30 08:07:48;;;;;;;8.90;4.70;;;;;;;;;;5092630;28;20012;-51
2021/07/30 08:10:14;;;;;;;9.95;4.85;;;;;;;;;;5093014;28;20027;-51
2021/07/30 08:12:40;;;;;;;16.25;6.70;;;;;;;;;;5091931;28;20024;-51
2021/07/30 08:15:06;;;;;;;9.60;5.05;;;;;;;;;;5092487;28;20773;-52
2021/07/30 08:17:34;;;;;;;6.80;4.20;;;;;;;;;;5092703;28;20028;-52
2021/07/30 08:20:00;;;;;;;14.40;4.32;;;;;;;;;;5092673;28;20103;-52
2021/07/30 08:22:26;;;;;;;14.15;4.38;;;;;;;;;;5091891;28;20081;-51
2021/07/30 08:24:52;;;;;;;9.18;4.63;;;;;;;;;;5093293;28;20024;-52
2021/07/30 08:27:18;;;;;;;10.45;4.43;;;;;;;;;;5092131;28;20055;-52
2021/07/30 08:29:44;;;;;;;9.02;3.45;;;;;;;;;;5089402;28;20089;-52
2021/07/30 08:32:10;;;;;;;8.95;4.57;;;;;;;;;;5084294;28;20028;-52
2021/07/30 08:34:39;;;;;;;13.25;4.55;;;;;;;;;;5079500;28;20390;-52
2021/07/30 08:37:08;;;;;;;8.13;3.57;;;;;;;;;;5072053;28;20454;-51
2021/07/30 08:39:35;;;;;;;5.13;3.45;;;;;;;;;;5092280;28;20025;-51
2021/07/30 08:42:02;;;;;;;9.20;4.22;;;;;;;;;;5091341;28;20438;-51
2021/07/30 08:44:28;;;;;;;9.38;3.92;;;;;;;;;;5092847;28;20016;-51
2021/07/30 08:46:54;;;;;;;12.40;4.78;;;;;;;;;;5092781;28;20028;-51
2021/07/30 08:49:21;;;;;;;9.18;4.13;;;;;;;;;;5092825;28;20039;-51
2021/07/30 08:51:50;;;;;;;9.95;4.65;;;;;;;;;;5091641;28;20438;-51
2021/07/30 08:54:16;;;;;;;8.70;3.47;;;;;;;;;;5091078;28;20020;-51
2021/07/30 08:56:42;;;;;;;8.15;3.47;;;;;;;;;;5078141;28;20032;-51
2021/07/30 08:59:09;;;;;;;12.73;4.03;;;;;;;;;;5087823;28;20047;-51
2021/07/30 09:01:35;;;;;;;7.30;3.20;;;;;;;;;;5071772;28;20104;-51
2021/07/30 09:04:01;;;;;;;6.18;4.20;;;;;;;;;;5072198;28;20028;-51
2021/07/30 09:06:27;;;;;;;5.82;3.33;;;;;;;;;;5072141;28;20034;-51
2021/07/30 09:09:02;;;;;;;6.03;4.03;;;;;;;;;;5071675;28;20403;-51
2021/07/30 09:11:29;;;;;;;7.35;3.25;;;;;;;;;;5071673;28;20063;-51
2021/07/30 09:13:56;;;;;;;6.53;3.28;;;;;;;;;;5072489;28;20032;-51
2021/07/30 09:16:22;;;;;;;6.63;3.33;;;;;;;;;;5075692;28;20056;-51
2021/07/30 09:18:48;;;;;;;11.43;3.45;;;;;;;;;;5075500;28;20033;-51
2021/07/30 09:21:21;;;;;;;9.15;3.40;;;;;;;;;;5074463;28;20362;-51
2021/07/30 09:23:55;;;;;;;7.07;3.65;;;;;;;;;;5075593;28;20070;-51
2021/07/30 09:26:33;;;;;;;5.07;2.90;;;;;;;;;;5075857;28;20035;-51
2021/07/30 09:29:04;;;;;;;6.20;3.08;;;;;;;;;;5075271;28;20016;-51
2021/07/30 09:31:36;;;;;;;6.32;3.42;;;;;;;;;;5074400;28;20024;-51
2021/07/30 09:34:15;;;;;;;7.80;3.10;;;;;;;;;;5074818;28;20031;-51
2021/07/30 09:36:45;;;;;;;3.85;2.65;;;;;;;;;;5075565;28;20032;-51
2021/07/30 09:39:11;;;;;;;5.50;2.70;;;;;;;;;;5075283;28;20029;-51
2021/07/30 09:41:37;;;;;;;9.07;3.00;;;;;;;;;;5075030;28;20086;-51
2021/07/30 09:44:07;;;;;;;4.15;3.13;;;;;;;;;;5092434;28;20020;-51
2021/07/30 09:46:33;;;;;;;7.03;3.77;;;;;;;;;;5089328;28;20042;-51
2021/07/30 09:48:59;;;;;;;6.45;3.25;;;;;;;;;;5089813;28;20019;-51
2021/07/30 09:51:26;;;;;;;9.82;3.33;;;;;;;;;;5086644;28;20025;-50
2021/07/30 09:53:52;;;;;;;5.30;2.58;;;;;;;;;;5088529;28;20471;-51
2021/07/30 09:56:21;;;;;;;6.47;3.22;;;;;;;;;;5083017;28;20089;-51
2021/07/30 09:58:47;;;;;;;5.13;3.17;;;;;;;;;;5086532;28;20331;-51
2021/07/30 10:01:21;;;;;;;9.05;3.65;;;;;;;;;;5090604;28;20373;-51
2021/07/30 10:03:47;;;;;;;5.05;3.17;;;;;;;;;;5093057;28;20361;-51
2021/07/30 10:06:14;;;;;;;4.82;2.55;;;;;;;;;;5093210;28;20024;-51
2021/07/30 10:08:41;;;;;;;7.18;3.20;;;;;;;;;;5091379;28;20035;-50
2021/07/30 10:11:09;;;;;;;6.03;3.40;;;;;;;;;;5092391;28;20024;-51
2021/07/30 10:13:46;;;;;;;5.75;3.20;;;;;;;;;;5092850;28;20028;-51
2021/07/30 10:16:12;;;;;;;6.03;3.33;;;;;;;;;;5093283;28;20512;-50
2021/07/30 10:18:38;;;;;;;7.55;3.40;;;;;;;;;;5094215;28;20077;-51
2021/07/30 10:21:04;;;;;;;7.93;3.70;;;;;;;;;;5093634;28;20115;-52
2021/07/30 10:23:30;;;;;;;10.55;3.80;;;;;;;;;;5094875;28;20031;-51
2021/07/30 10:26:01;;;;;;;5.82;3.25;;;;;;;;;;5093689;28;20077;-51
2021/07/30 10:28:28;;;;;;;5.47;3.13;;;;;;;;;;5094459;28;20023;-51
2021/07/30 10:30:54;;;;;;;5.30;3.33;;;;;;;;;;5093354;28;20032;-51
2021/07/30 10:33:37;;;;;;;6.25;3.38;;;;;;;;;;5094808;28;20016;-51
2021/07/30 10:36:12;;;;;;;8.43;3.85;;;;;;;;;;5076844;28;20115;-51
2021/07/30 10:38:38;;;;;;;4.78;3.10;;;;;;;;;;5078947;28;20031;-51
2021/07/30 10:41:04;;;;;;;8.27;3.50;;;;;;;;;;5084514;28;20024;-51
2021/07/30 10:43:33;;;;;;;6.90;3.85;;;;;;;;;;5088322;28;20039;-52
2021/07/30 10:46:08;;;;;;;6.43;3.17;;;;;;;;;;5093909;28;20032;-51
2021/07/30 10:48:44;;;;;;;8.18;3.92;;;;;;;;;;5089076;28;20277;-51
2021/07/30 10:51:19;;;;;;;5.80;3.10;;;;;;;;;;5086893;28;20473;-51
2021/07/30 10:53:51;;;;;;;8.57;3.33;;;;;;;;;;5071914;28;20098;-51
2021/07/30 10:56:17;;;;;;;4.75;2.90;;;;;;;;;;5066912;28;20028;-51
2021/07/30 10:58:46;;;;;;;5.47;2.00;;;;;;;;;;5065014;28;20484;-51
2021/07/30 11:01:12;;;;;;;6.40;2.42;;;;;;;;;;5063642;28;20370;-51
2021/07/30 11:03:53;;;;;;;6.70;3.05;;;;;;;;;;5071063;28;20028;-51
2021/07/30 11:06:25;;;;;;;5.78;3.03;;;;;;;;;;5072949;28;20035;-51
2021/07/30 11:11:45;;;;;;;4.60;2.65;;;;;;;;;;5071354;28;20083;-52
2021/07/30 11:14:15;;;;;;;5.90;4.05;;;;;;;;;;5073590;28;20060;-51
2021/07/30 11:16:52;;;;;;;8.20;3.92;;;;;;;;;;5072663;28;20060;-51
2021/07/30 11:19:19;;;;;;;5.22;3.30;;;;;;;;;;5073477;28;20032;-51
2021/07/30 11:21:46;;;;;;;5.85;3.15;;;;;;;;;;5072484;28;20123;-51
2021/07/30 11:24:12;;;;;;;7.57;3.47;;;;;;;;;;5073404;28;20025;-50
2021/07/30 11:26:39;;;;;;;7.20;3.65;;;;;;;;;;5072994;28;20023;-51
2021/07/30 11:29:09;;;;;;;8.00;3.08;;;;;;;;;;5072987;28;20029;-50
2021/07/30 11:31:37;;;;;;;6.57;3.85;;;;;;;;;;5072733;28;20035;-51
2021/07/30 11:34:03;;;;;;;7.10;3.40;;;;;;;;;;5072543;28;20044;-51
2021/07/30 11:36:29;;;;;;;8.77;4.60;;;;;;;;;;5056344;28;20032;-51
2021/07/30 11:38:56;;;;;;;8.63;3.72;;;;;;;;;;5070785;28;20020;-51
2021/07/30 11:41:23;;;;;;;8.63;3.80;;;;;;;;;;5072096;28;20376;-51
2021/07/30 11:44:16;;;;;;;7.38;4.00;;;;;;;;;;5072888;28;20032;-51
2021/07/30 11:46:42;;;;;;;4.07;2.85;;;;;;;;;;5071008;28;20453;-51
2021/07/30 11:49:10;;;;;;;7.53;3.42;;;;;;;;;;5072624;28;20058;-51
2021/07/30 11:51:40;;;;;;;5.90;3.47;;;;;;;;;;5072110;28;20055;-51
2021/07/30 11:54:06;;;;;;;8.55;4.10;;;;;;;;;;5072514;28;20021;-51
2021/07/30 11:56:42;;;;;;;7.10;4.05;;;;;;;;;;5072702;28;20079;-51
2021/07/30 11:59:08;;;;;;;10.07;4.22;;;;;;;;;;5073083;28;20145;-51
2021/07/30 12:01:34;;;;;;;10.05;4.43;;;;;;;;;;5071956;28;20058;-51
2021/07/30 12:04:09;;;;;;;6.03;3.63;;;;;;;;;;5073158;28;20024;-51
2021/07/30 12:06:38;;;;;;;9.13;4.40;;;;;;;;;;5072940;28;20027;-51
2021/07/30 12:09:06;;;;;;;7.43;3.75;;;;;;;;;;5072802;28;20021;-51
2021/07/30 12:11:31;;;;;;;8.20;4.40;;;;;;;;;;5071951;28;20028;-51
2021/07/30 12:13:58;;;;;;;7.20;4.00;;;;;;;;;;5063006;28;20066;-51
2021/07/30 12:16:24;;;;;;;9.55;4.40;;;;;;;;;;5057855;28;20045;-51
2021/07/30 12:18:49;;;;;;;7.53;4.20;;;;;;;;;;5052394;28;20350;-51
2021/07/30 12:21:15;;;;;;;9.77;3.75;;;;;;;;;;5051459;28;20036;-51
2021/07/30 12:23:41;;;;;;;9.13;4.15;;;;;;;;;;5066820;28;20028;-51
2021/07/30 12:26:27;;;;;;;9.15;4.30;;;;;;;;;;5055714;28;20060;-51
2021/07/30 12:28:53;;;;;;;7.03;4.20;;;;;;;;;;5051976;28;20017;-51
2021/07/30 12:31:20;;;;;;;6.85;3.97;;;;;;;;;;5051485;28;20336;-50
2021/07/30 12:33:46;;;;;;;5.75;4.25;;;;;;;;;;5061037;28;20490;-50
2021/07/30 12:36:14;;;;;;;6.15;3.45;;;;;;;;;;5071902;28;20351;-50
2021/07/30 12:38:57;;;;;;;4.65;3.20;;;;;;;;;;5071823;28;20029;-50
2021/07/30 12:41:26;;;;;;;5.63;3.55;;;;;;;;;;5059849;28;20044;-50
2021/07/30 12:43:53;;;;;;;12.90;5.00;;;;;;;;;;5061042;28;20338;-50
2021/07/30 12:46:36;;;;;;;7.57;3.58;;;;;;;;;;5062858;28;20342;-50
2021/07/30 12:49:03;;;;;;;6.50;3.72;;;;;;;;;;5062923;28;20029;-50
2021/07/30 12:51:29;;;;;;;5.45;3.65;;;;;;;;;;5064430;28;20134;-50
2021/07/30 12:54:02;;;;;;;6.07;3.40;;;;;;;;;;5067560;28;20039;-50
2021/07/30 12:56:32;;;;;;;5.10;2.92;;;;;;;;;;5067086;28;20490;-50
2021/07/30 12:58:58;;;;;;;5.97;3.13;;;;;;;;;;5065801;28;20091;-50
2021/07/30 13:01:24;;;;;;;7.05;3.70;;;;;;;;;;5063811;28;20024;-50
2021/07/30 13:04:01;;;;;;;9.63;3.53;;;;;;;;;;5065970;28;20021;-50
2021/07/30 13:06:27;;;;;;;8.25;2.97;;;;;;;;;;5066113;28;20035;-50
2021/07/30 13:08:53;;;;;;;8.10;4.05;;;;;;;;;;5063515;28;20573;-50
2021/07/30 13:11:21;;;;;;;8.98;4.20;;;;;;;;;;5072343;28;20074;-50
2021/07/30 13:13:47;;;;;;;11.73;3.92;;;;;;;;;;5067254;28;20020;-51
2021/07/30 13:16:15;;;;;;;9.18;3.92;;;;;;;;;;5060286;28;20051;-50
2021/07/30 13:18:41;;;;;;;11.90;4.57;;;;;;;;;;5062778;28;20088;-50
2021/07/30 13:21:07;;;;;;;11.90;4.32;;;;;;;;;;5060496;28;20573;-51
2021/07/30 13:23:33;;;;;;;7.70;3.85;;;;;;;;;;5065780;28;20104;-50
2021/07/30 13:25:59;;;;;;;5.82;3.90;;;;;;;;;;5064803;28;20426;-50
2021/07/30 13:28:25;;;;;;;7.03;4.25;;;;;;;;;;5063984;28;20021;-50
2021/07/30 13:30:57;;;;;;;7.57;4.00;;;;;;;;;;5064540;28;20453;-51
2021/07/30 13:33:23;;;;;;;5.90;3.78;;;;;;;;;;5071967;28;20047;-51
2021/07/30 13:35:49;;;;;;;11.32;4.68;;;;;;;;;;5073606;28;20025;-51
2021/07/30 13:38:15;;;;;;;8.70;4.32;;;;;;;;;;5074973;28;20553;-51
2021/07/30 13:40:41;;;;;;;10.85;4.53;;;;;;;;;;5073992;28;20084;-51
2021/07/30 13:43:08;;;;;;;4.57;3.25;;;;;;;;;;5075171;28;20366;-51
2021/07/30 13:45:35;;;;;;;5.57;3.15;;;;;;;;;;5075089;28;20024;-51
2021/07/30 13:48:01;;;;;;;13.05;4.30;;;;;;;;;;5074732;28;20052;-51
2021/07/30 13:50:28;;;;;;;7.28;3.80;;;;;;;;;;5074900;28;20063;-51
2021/07/30 13:52:54;;;;;;;7.15;3.60;;;;;;;;;;5073853;28;20024;-51
2021/07/30 13:55:20;;;;;;;14.18;4.72;;;;;;;;;;5074640;28;20063;-51
2021/07/30 13:57:46;;;;;;;9.60;3.63;;;;;;;;;;5075176;28;20048;-51
2021/07/30 14:00:12;;;;;;;8.00;4.18;;;;;;;;;;5072996;28;20079;-51
2021/07/30 14:02:38;;;;;;;7.32;3.65;;;;;;;;;;5073949;28;20028;-51
2021/07/30 14:05:04;;;;;;;8.10;4.50;;;;;;;;;;5086187;28;20174;-52
2021/07/30 14:07:30;;;;;;;9.48;4.82;;;;;;;;;;5075494;28;20024;-51
2021/07/30 14:09:56;;;;;;;5.85;4.00;;;;;;;;;;5086508;28;20447;-51
2021/07/30 14:12:22;;;;;;;7.10;3.65;;;;;;;;;;5085557;28;20440;-51
2021/07/30 14:14:48;;;;;;;9.68;4.15;;;;;;;;;;5081899;28;20035;-51
2021/07/30 14:17:14;;;;;;;8.35;4.10;;;;;;;;;;5091551;28;20472;-51
2021/07/30 14:19:40;;;;;;;6.05;3.47;;;;;;;;;;5094682;28;20024;-51
2021/07/30 14:22:07;;;;;;;8.77;4.78;;;;;;;;;;5093664;28;20038;-51
2021/07/30 14:24:33;;;;;;;7.35;3.60;;;;;;;;;;5094953;28;20050;-51
2021/07/30 14:27:00;;;;;;;5.15;3.55;;;;;;;;;;5094497;28;20305;-51
2021/07/30 14:29:26;;;;;;;9.95;3.67;;;;;;;;;;5084808;28;20033;-51
2021/07/30 14:31:52;;;;;;;10.20;4.07;;;;;;;;;;5060379;28;20071;-51
2021/07/30 14:34:18;;;;;;;11.20;4.95;;;;;;;;;;5072121;28;20497;-51
2021/07/30 14:36:44;;;;;;;5.97;4.05;;;;;;;;;;5069347;28;20124;-51
2021/07/30 14:39:13;;;;;;;8.23;4.40;;;;;;;;;;5065691;28;20040;-51
2021/07/30 14:41:39;;;;;;;12.45;5.00;;;;;;;;;;5064085;28;20024;-51
2021/07/30 14:44:05;;;;;;;7.97;4.90;;;;;;;;;;5074019;28;20028;-51
2021/07/30 14:46:35;;;;;;;8.35;4.75;;;;;;;;;;5073281;28;20028;-53